Time;durP1;ratioP1;P1;durP2;ratioP2;P2;SDS_P1;SDS_P2;PMS_P1;PMS_P2;Temp;Humidity;BMP_temperature;BMP_pressure;BME280_temperature;BME280_humidity;BME280_pressure;Samples;Min_cycle;Max_cycle;Signal;HPM_P1;HPM_P2
2022/02/24 05:06:28;;;;;;;;;21.00;18.50;;;;;;;;6462856;39;8991;-51
2022/02/24 05:12:31;;;;;;;;;22.00;20.00;;;;;;;;6493343;39;9668;-57
2022/02/24 05:18:34;;;;;;;;;20.00;19.75;;;;;;;;6492245;39;8873;-55
2022/02/24 05:24:36;;;;;;;;;24.00;21.75;;;;;;;;6492848;39;9560;-53
2022/02/24 05:30:38;;;;;;;;;22.00;21.50;;;;;;;;6492308;39;8903;-55
2022/02/24 05:36:43;;;;;;;;;21.75;18.50;;;;;;;;6493257;36;8836;-54
2022/02/24 05:42:46;;;;;;;;;19.50;18.75;;;;;;;;6493180;31;8841;-54
2022/02/24 05:48:49;;;;;;;;;20.00;19.00;;;;;;;;6491892;39;8887;-54
2022/02/24 05:54:52;;;;;;;;;22.75;20.00;;;;;;;;6493756;31;8913;-54
2022/02/24 06:00:54;;;;;;;;;32.00;30.75;;;;;;;;6491996;47;8914;-53
2022/02/24 06:06:57;;;;;;;;;28.50;25.50;;;;;;;;6492032;39;9581;-54
2022/02/24 06:12:59;;;;;;;;;41.75;34.50;;;;;;;;6492680;31;8958;-53
2022/02/24 06:19:01;;;;;;;;;27.50;21.25;;;;;;;;6491126;47;8861;-55
2022/02/24 06:25:05;;;;;;;;;37.50;35.00;;;;;;;;6491457;47;8834;-54
2022/02/24 06:31:07;;;;;;;;;28.25;26.00;;;;;;;;6491741;39;8916;-52
2022/02/24 06:37:10;;;;;;;;;40.25;37.00;;;;;;;;6490880;39;9057;-55
2022/02/24 06:43:13;;;;;;;;;35.25;32.25;;;;;;;;6491269;47;8896;-55
2022/02/24 06:49:17;;;;;;;;;32.00;30.50;;;;;;;;6491371;31;8873;-55
2022/02/24 06:55:20;;;;;;;;;32.50;31.00;;;;;;;;6490731;47;8969;-53
2022/02/24 07:01:23;;;;;;;;;31.25;28.25;;;;;;;;6491091;39;8922;-54
2022/02/24 07:07:25;;;;;;;;;28.25;24.75;;;;;;;;6491650;46;8969;-53
2022/02/24 07:13:28;;;;;;;;;26.00;25.25;;;;;;;;6492885;31;8916;-52
2022/02/24 07:19:51;;;;;;;;;34.75;31.75;;;;;;;;6491027;39;8913;-52
2022/02/24 07:25:56;;;;;;;;;16.25;14.25;;;;;;;;6491649;39;8818;-53
2022/02/24 07:31:59;;;;;;;;;26.00;19.75;;;;;;;;6491841;39;8926;-55
2022/02/24 07:38:03;;;;;;;;;31.00;31.00;;;;;;;;6486503;31;9076;-54
2022/02/24 07:44:11;;;;;;;;;17.00;14.67;;;;;;;;6491083;39;9148;-54
2022/02/24 07:50:14;;;;;;;;;19.00;18.00;;;;;;;;6490230;46;8956;-52
2022/02/24 07:56:18;;;;;;;;;17.50;15.75;;;;;;;;6492171;46;8924;-56
2022/02/24 08:02:21;;;;;;;;;20.00;15.25;;;;;;;;6489941;39;9597;-54
2022/02/24 08:08:24;;;;;;;;;13.25;13.25;;;;;;;;6492456;39;9113;-54
2022/02/24 08:14:28;;;;;;;;;9.25;9.25;;;;;;;;6492396;46;8997;-56
2022/02/24 08:20:30;;;;;;;;;17.75;15.25;;;;;;;;6491192;31;8872;-54
2022/02/24 08:26:34;;;;;;;;;8.00;8.00;;;;;;;;6491958;39;8955;-54
2022/02/24 08:32:38;;;;;;;;;19.00;16.00;;;;;;;;6490684;46;8931;-52
2022/02/24 08:38:42;;;;;;;;;11.50;11.50;;;;;;;;6489206;39;8966;-54
2022/02/24 08:45:04;;;;;;;;;16.00;14.00;;;;;;;;6489821;31;8947;-53
2022/02/24 08:51:13;;;;;;;;;21.00;17.75;;;;;;;;6490266;46;8967;-51
2022/02/24 08:57:15;;;;;;;;;10.00;10.00;;;;;;;;6492123;31;8909;-52
2022/02/24 09:03:18;;;;;;;;;15.50;14.25;;;;;;;;6490210;46;8949;-57
2022/02/24 09:09:20;;;;;;;;;13.75;13.75;;;;;;;;6490343;39;8959;-53
2022/02/24 09:15:23;;;;;;;;;14.00;13.75;;;;;;;;6490170;39;8979;-57
2022/02/24 09:21:25;;;;;;;;;21.50;19.25;;;;;;;;6491390;39;8941;-57
2022/02/24 09:27:28;;;;;;;;;18.25;18.25;;;;;;;;6491339;31;8936;-54
2022/02/24 09:33:32;;;;;;;;;14.00;14.00;;;;;;;;6491312;31;8986;-54
2022/02/24 09:39:34;;;;;;;;;13.00;10.00;;;;;;;;6491078;31;9041;-52
2022/02/24 09:45:39;;;;;;;;;11.00;10.00;;;;;;;;6490411;39;9336;-55
2022/02/24 09:51:45;;;;;;;;;17.75;14.00;;;;;;;;6490989;39;9551;-54
2022/02/24 09:57:48;;;;;;;;;16.50;16.00;;;;;;;;6490117;31;8970;-56
2022/02/24 10:04:00;;;;;;;;;15.50;13.25;;;;;;;;6489222;39;9058;-56
2022/02/24 10:10:21;;;;;;;;;19.25;18.00;;;;;;;;6491709;31;9566;-50
2022/02/24 10:16:24;;;;;;;;;14.25;14.25;;;;;;;;6491009;39;8905;-53
